Time;durP1;ratioP1;P1;durP2;ratioP2;P2;SDS_P1;SDS_P2;PMS_P1;PMS_P2;Temp;Humidity;BMP_temperature;BMP_pressure;BME280_temperature;BME280_humidity;BME280_pressure;Samples;Min_cycle;Max_cycle;Signal;HPM_P1;HPM_P2
2023/03/14 00:00:25;;;;;;;;;;;;;;;11.35;77.76;98141.75;1087669;54;19958;-82
2023/03/14 00:01:26;;;;;;;;;;;;;;;11.35;77.88;98134.56;1088065;54;19942;-84
2023/03/14 00:02:38;;;;;;;;;;;;;;;11.37;77.90;98137.06;1087843;54;20014;-81
2023/03/14 00:04:48;;;;;;;;;;;;;;;11.39;77.74;98146.53;1087628;54;19947;-82
2023/03/14 00:05:53;;;;;;;;;;;;;;;11.43;77.78;98140.78;1088703;46;19938;-83
2023/03/14 00:06:55;;;;;;;;;;;;;;;11.47;77.32;98137.53;1087941;54;19931;-81
2023/03/14 00:08:03;;;;;;;;;;;;;;;11.43;77.34;98146.16;1088419;54;20011;-84
2023/03/14 00:55:01;;;;;;;;;;;;;;;11.50;76.50;98173.75;1088342;54;19933;-79
2023/03/14 01:07:44;;;;;;;;;;;;;;;11.38;77.36;98173.50;1088421;54;19927;-83
2023/03/14 01:08:46;;;;;;;;;;;;;;;11.38;77.64;98178.84;1093474;46;20004;-84
2023/03/14 01:35:29;;;;;;;;;;;;;;;11.33;78.47;98147.31;1086910;54;19953;-84
2023/03/14 01:36:31;;;;;;;;;;;;;;;11.37;78.17;98137.06;1088072;54;19938;-81
2023/03/14 01:37:36;;;;;;;;;;;;;;;11.30;78.28;98128.97;1088641;46;19950;-84
2023/03/14 02:53:33;;;;;;;;;;;;;;;;;;;;;
2023/03/14 02:56:09;;;;;;;;;;;;;;;11.40;74.34;98010.91;1088482;54;19970;-82
2023/03/14 03:36:09;;;;;;;;;;;;;;;11.34;70.74;97968.91;1075023;54;19994;31
2023/03/14 03:37:24;;;;;;;;;;;;;;;11.26;71.10;97961.88;1088416;54;19934;-81
2023/03/14 03:44:59;;;;;;;;;;;;;;;11.15;70.68;97979.34;1088213;54;19935;-85
2023/03/14 03:47:26;;;;;;;;;;;;;;;11.26;70.38;97979.78;1088364;54;19927;-84
2023/03/14 05:23:22;;;;;;;;;;;;;;;10.96;64.50;97881.97;1088330;54;19934;-83
2023/03/14 05:29:40;;;;;;;;;;;;;;;10.99;64.18;97886.09;1087807;54;19926;-83
2023/03/14 05:38:34;;;;;;;;;;;;;;;10.90;64.56;97880.09;1081270;54;19978;-85
2023/03/14 05:39:45;;;;;;;;;;;;;;;10.92;64.24;97873.50;1087902;54;19980;-81
2023/03/14 05:40:51;;;;;;;;;;;;;;;10.90;64.18;97882.75;1088304;54;20735;-83
2023/03/14 05:42:06;;;;;;;;;;;;;;;11.00;64.41;97890.44;1090194;46;19934;-84
2023/03/14 05:57:30;;;;;;;;;;;;;;;11.02;63.52;97878.50;1087830;54;19950;-82
2023/03/14 05:58:38;;;;;;;;;;;;;;;11.07;63.60;97876.03;1088029;54;19942;-82
2023/03/14 05:59:51;;;;;;;;;;;;;;;11.13;63.17;97876.28;1090324;47;19946;-79
2023/03/14 06:00:55;;;;;;;;;;;;;;;11.11;63.70;97887.16;1087986;54;19935;-81
2023/03/14 06:02:00;;;;;;;;;;;;;;;11.14;63.44;97883.28;1087916;54;20006;-81
2023/03/14 06:03:06;;;;;;;;;;;;;;;11.08;63.54;97877.69;1088116;54;19978;-82
2023/03/14 06:04:13;;;;;;;;;;;;;;;11.10;63.66;97887.34;1087752;54;19943;-82
2023/03/14 06:05:14;;;;;;;;;;;;;;;11.12;63.02;97872.75;1086601;54;19950;-82
2023/03/14 06:16:52;;;;;;;;;;;;;;;11.15;63.64;97883.06;1087592;54;19973;-81
2023/03/14 06:17:53;;;;;;;;;;;;;;;11.18;63.33;97871.13;1087454;54;19943;-79
2023/03/14 06:20:13;;;;;;;;;;;;;;;11.17;63.48;97885.53;1087203;47;19966;-77
2023/03/14 06:21:26;;;;;;;;;;;;;;;11.17;63.48;97875.66;1087055;54;19974;-80
2023/03/14 06:22:30;;;;;;;;;;;;;;;11.12;63.33;97874.63;1086977;54;19954;-78
2023/03/14 06:23:32;;;;;;;;;;;;;;;11.06;63.65;97873.56;1086846;54;19943;-80
2023/03/14 06:24:37;;;;;;;;;;;;;;;11.05;63.35;97872.72;1087555;54;19934;-81
2023/03/14 06:25:39;;;;;;;;;;;;;;;11.05;63.60;97875.41;1087954;54;19927;-80
2023/03/14 06:26:43;;;;;;;;;;;;;;;11.11;63.23;97868.44;1089525;39;20483;-80
2023/03/14 06:27:44;;;;;;;;;;;;;;;11.03;63.65;97873.97;1087828;54;19950;-80
2023/03/14 06:28:49;;;;;;;;;;;;;;;11.08;63.23;97866.19;1094462;39;20553;-81
2023/03/14 06:29:53;;;;;;;;;;;;;;;11.11;63.51;97863.09;1088214;54;19973;-82
2023/03/14 06:32:38;;;;;;;;;;;;;;;11.14;63.43;97859.22;1088134;54;19943;-81
2023/03/14 06:45:30;;;;;;;;;;;;;;;11.43;62.04;97858.00;1087030;54;19943;-81
2023/03/14 06:46:43;;;;;;;;;;;;;;;11.40;62.06;97853.06;1088109;54;19943;-83
2023/03/14 06:49:54;;;;;;;;;;;;;;;11.45;62.10;97852.44;1088153;54;19930;-85
2023/03/14 07:48:09;;;;;;;;;;;;;;;11.83;61.21;97841.16;1088666;39;20546;-81
2023/03/14 07:49:10;;;;;;;;;;;;;;;11.84;60.83;97850.81;1087920;54;20630;-79
2023/03/14 08:38:28;;;;;;;;;;;;;;;12.66;56.13;97855.03;1086725;54;19931;-82
2023/03/14 08:39:35;;;;;;;;;;;;;;;12.63;56.14;97849.06;1088168;54;19942;-82
2023/03/14 08:40:49;;;;;;;;;;;;;;;12.67;56.34;97848.63;1087886;54;19954;-82
2023/03/14 08:41:51;;;;;;;;;;;;;;;12.73;56.38;97843.25;1089335;39;20383;-83
2023/03/14 09:04:05;;;;;;;;;;;;;;;12.77;56.95;97895.41;1084898;54;19938;-80
2023/03/14 09:05:10;;;;;;;;;;;;;;;12.77;57.70;97895.41;1085918;54;19938;-80
2023/03/14 09:06:12;;;;;;;;;;;;;;;12.59;58.98;97909.47;1085954;54;19955;-80
2023/03/14 09:07:29;;;;;;;;;;;;;;;12.48;59.56;97902.06;1088082;54;19946;-80
2023/03/14 09:08:33;;;;;;;;;;;;;;;12.50;60.56;97905.38;1088301;54;19927;-83
2023/03/14 09:21:33;;;;;;;;;;;;;;;11.60;69.31;97937.91;1087823;39;20526;-79
2023/03/14 09:22:35;;;;;;;;;;;;;;;11.51;70.65;97939.94;1087948;54;20533;-80
2023/03/14 09:24:03;;;;;;;;;;;;;;;11.37;71.19;97934.56;1088047;54;20485;-81
2023/03/14 09:25:11;;;;;;;;;;;;;;;11.29;71.55;97937.41;1087859;54;19942;-81
2023/03/14 09:26:19;;;;;;;;;;;;;;;11.23;71.43;97941.72;1090105;39;20349;-81
2023/03/14 09:27:22;;;;;;;;;;;;;;;11.18;71.03;97935.31;1091965;46;19957;-82
2023/03/14 09:28:39;;;;;;;;;;;;;;;11.19;71.16;97936.97;1087720;54;19947;-81
2023/03/14 09:29:46;;;;;;;;;;;;;;;11.26;71.98;97931.66;1088167;54;19969;-80
2023/03/14 09:32:11;;;;;;;;;;;;;;;11.34;71.97;97928.78;1088114;54;19950;-83
2023/03/14 09:33:18;;;;;;;;;;;;;;;11.35;72.23;97915.19;1088028;54;20005;-84
2023/03/14 09:35:31;;;;;;;;;;;;;;;11.32;70.03;97915.63;1087808;54;19978;-82
2023/03/14 09:39:45;;;;;;;;;;;;;;;11.55;68.40;97909.06;1088019;54;19954;-81
2023/03/14 10:19:11;;;;;;;;;;;;;;;12.16;66.72;97920.69;1087871;54;19949;-81
2023/03/14 10:24:53;;;;;;;;;;;;;;;11.99;65.39;97926.47;1093960;47;19999;-84
2023/03/14 10:36:08;;;;;;;;;;;;;;;12.17;62.59;97933.03;1087944;54;19945;-83
2023/03/14 10:37:23;;;;;;;;;;;;;;;12.21;62.33;97928.91;1090294;39;20695;-83
2023/03/14 10:38:56;;;;;;;;;;;;;;;12.23;62.14;97921.50;1091785;46;20287;-83
2023/03/14 10:40:30;;;;;;;;;;;;;;;12.34;62.36;97930.75;1093578;46;19966;-85
2023/03/14 10:46:13;;;;;;;;;;;;;;;12.27;62.57;97938.81;1088607;54;19915;-83
2023/03/14 10:47:17;;;;;;;;;;;;;;;12.23;62.14;97945.59;1089861;31;20779;-83
2023/03/14 10:48:32;;;;;;;;;;;;;;;12.26;62.52;97953.22;1091722;46;19938;-84
2023/03/14 10:49:37;;;;;;;;;;;;;;;12.24;62.64;97944.56;1090374;46;19934;-85
2023/03/14 11:14:06;;;;;;;;;;;;;;;12.15;61.52;97945.81;1088187;39;20918;-81
2023/03/14 11:15:18;;;;;;;;;;;;;;;12.15;61.25;97929.75;1087296;54;19946;-79
2023/03/14 11:16:32;;;;;;;;;;;;;;;12.12;61.86;97935.50;1087246;54;20651;-81
2023/03/14 11:17:53;;;;;;;;;;;;;;;12.13;61.57;97943.34;1087446;54;19954;-81
2023/03/14 11:19:36;;;;;;;;;;;;;;;12.06;61.45;97947.03;1087744;54;19946;-81
2023/03/14 11:20:44;;;;;;;;;;;;;;;12.09;61.43;97942.09;1087499;54;19951;-80
2023/03/14 11:25:20;;;;;;;;;;;;;;;12.18;61.90;97945.41;1088070;54;19949;-82
2023/03/14 11:26:30;;;;;;;;;;;;;;;12.20;62.19;97945.19;1088513;54;19934;-80
2023/03/14 11:27:36;;;;;;;;;;;;;;;12.12;62.71;97957.78;1089284;39;20621;-82
2023/03/14 11:28:41;;;;;;;;;;;;;;;12.05;63.59;97953.44;1088350;54;19943;-83
2023/03/14 11:42:02;;;;;;;;;;;;;;;11.79;64.71;97950.50;1087918;54;19954;-81
2023/03/14 11:44:44;;;;;;;;;;;;;;;11.68;65.48;97965.31;1087985;54;20007;-82
2023/03/14 11:45:57;;;;;;;;;;;;;;;11.60;66.28;97962.81;1088509;46;19943;-81
2023/03/14 11:47:14;;;;;;;;;;;;;;;11.56;67.13;97980.28;1087627;54;19961;-81
2023/03/14 11:48:27;;;;;;;;;;;;;;;11.41;67.18;97979.63;1088039;39;20639;-80
2023/03/14 11:49:38;;;;;;;;;;;;;;;11.42;67.59;97978.63;1090834;39;20535;-80
2023/03/14 11:50:42;;;;;;;;;;;;;;;11.30;68.12;97979.19;1089297;46;19976;-81
2023/03/14 11:51:49;;;;;;;;;;;;;;;11.34;68.83;97976.94;1087871;54;19938;-80
2023/03/14 11:52:53;;;;;;;;;;;;;;;11.22;69.33;97988.19;1087774;54;19962;-80
2023/03/14 11:54:02;;;;;;;;;;;;;;;11.21;69.00;97988.41;1087895;54;20042;-81
2023/03/14 11:55:16;;;;;;;;;;;;;;;11.19;69.32;97982.44;1088082;54;19942;-81
2023/03/14 11:56:27;;;;;;;;;;;;;;;11.25;69.59;97989.66;1087985;39;20706;-82
2023/03/14 11:57:52;;;;;;;;;;;;;;;11.16;69.36;97996.19;1087822;54;19946;-81
2023/03/14 11:58:57;;;;;;;;;;;;;;;11.20;68.98;97994.78;1088131;54;19938;-82
2023/03/14 12:00:06;;;;;;;;;;;;;;;11.18;69.52;97986.13;1089421;46;19987;-81
2023/03/14 12:01:11;;;;;;;;;;;;;;;11.29;69.72;97990.09;1087892;54;19998;-82
2023/03/14 12:02:26;;;;;;;;;;;;;;;11.21;69.10;97985.72;1087942;54;19986;-82
2023/03/14 12:03:32;;;;;;;;;;;;;;;11.19;69.23;97990.44;1088290;46;19943;-80
2023/03/14 12:04:45;;;;;;;;;;;;;;;11.24;69.37;97999.53;1087725;54;19943;-81
2023/03/14 12:05:51;;;;;;;;;;;;;;;11.27;69.09;97992.94;1087900;54;19927;-81
2023/03/14 12:06:59;;;;;;;;;;;;;;;11.33;69.41;98000.19;1087652;54;19938;-81
2023/03/14 12:08:16;;;;;;;;;;;;;;;11.30;69.50;98003.25;1087579;54;19943;-81
2023/03/14 12:09:26;;;;;;;;;;;;;;;11.35;69.70;98008.81;1087858;46;19927;-80
2023/03/14 12:10:28;;;;;;;;;;;;;;;11.30;69.36;98011.28;1087609;54;19946;-79
2023/03/14 12:11:58;;;;;;;;;;;;;;;11.26;69.82;98018.03;1087757;54;19951;-80
2023/03/14 12:13:03;;;;;;;;;;;;;;;11.31;69.74;98020.97;1087896;54;20203;-81
2023/03/14 12:14:20;;;;;;;;;;;;;;;11.30;70.15;98038.03;1087708;54;19946;-81
2023/03/14 12:15:28;;;;;;;;;;;;;;;11.14;69.11;98025.00;1088448;46;19942;-82
2023/03/14 12:16:36;;;;;;;;;;;;;;;11.07;69.57;98028.44;1090056;46;19954;-81
2023/03/14 12:17:48;;;;;;;;;;;;;;;11.00;68.74;98030.25;1087618;54;19930;-83
2023/03/14 12:18:53;;;;;;;;;;;;;;;10.95;68.55;98038.06;1088352;39;20428;-82
2023/03/14 12:20:09;;;;;;;;;;;;;;;10.93;69.19;98042.78;1087759;54;20701;-81
2023/03/14 12:21:12;;;;;;;;;;;;;;;11.12;69.03;98051.09;1087955;54;19943;-81
2023/03/14 12:22:35;;;;;;;;;;;;;;;11.01;69.15;98050.63;1087639;54;20010;-82
2023/03/14 12:23:41;;;;;;;;;;;;;;;10.97;68.44;98057.38;1087911;54;19927;-81
2023/03/14 12:24:50;;;;;;;;;;;;;;;10.98;68.85;98061.72;1088162;54;19957;-80
2023/03/14 12:26:09;;;;;;;;;;;;;;;10.91;68.60;98053.63;1087696;54;20769;-81
2023/03/14 12:27:17;;;;;;;;;;;;;;;10.89;68.44;98073.56;1087938;54;19942;-80
2023/03/14 12:28:20;;;;;;;;;;;;;;;10.86;67.76;98076.66;1087926;54;19942;-80
2023/03/14 12:29:32;;;;;;;;;;;;;;;10.79;68.11;98083.78;1088096;54;20325;-81
2023/03/14 12:30:37;;;;;;;;;;;;;;;10.59;67.39;98093.31;1091352;46;19999;-80
2023/03/14 12:31:53;;;;;;;;;;;;;;;10.44;68.12;98106.72;1090258;46;19931;-82
2023/03/14 12:33:16;;;;;;;;;;;;;;;10.35;68.03;98107.00;1089469;46;19954;-81
2023/03/14 12:34:41;;;;;;;;;;;;;;;10.26;68.00;98098.31;1087652;54;19949;-81
2023/03/14 12:35:43;;;;;;;;;;;;;;;10.27;68.34;98108.78;1088499;46;19965;-81
2023/03/14 12:37:02;;;;;;;;;;;;;;;10.09;68.08;98129.75;1087805;54;19950;-81
2023/03/14 12:38:05;;;;;;;;;;;;;;;9.97;68.38;98137.44;1088220;39;20501;-81
2023/03/14 12:39:17;;;;;;;;;;;;;;;9.99;68.60;98140.75;1088149;54;20054;-81
2023/03/14 12:40:30;;;;;;;;;;;;;;;9.90;68.67;98139.19;1088142;54;19939;-80
2023/03/14 12:41:39;;;;;;;;;;;;;;;9.78;68.20;98149.50;1087949;54;19942;-81
2023/03/14 12:42:57;;;;;;;;;;;;;;;9.75;68.65;98134.69;1087965;54;20215;-81
2023/03/14 12:44:27;;;;;;;;;;;;;;;9.75;68.31;98169.38;1090292;46;19938;-80
2023/03/14 12:45:34;;;;;;;;;;;;;;;9.70;68.33;98152.28;1087998;54;19942;-81
2023/03/14 12:46:47;;;;;;;;;;;;;;;9.71;67.85;98148.59;1088244;54;19943;-83
2023/03/14 12:47:56;;;;;;;;;;;;;;;9.67;67.83;98170.34;1088029;54;19943;-81
2023/03/14 12:49:07;;;;;;;;;;;;;;;9.52;67.64;98173.00;1087799;54;19938;-79
2023/03/14 12:50:14;;;;;;;;;;;;;;;9.61;67.70;98175.56;1087976;54;19966;-80
2023/03/14 12:51:18;;;;;;;;;;;;;;;9.55;67.69;98182.47;1087864;47;19935;-82
2023/03/14 12:52:22;;;;;;;;;;;;;;;9.59;67.90;98199.75;1087859;54;19998;-79
2023/03/14 12:53:46;;;;;;;;;;;;;;;9.56;67.47;98197.47;1087883;54;19942;-80
2023/03/14 12:54:51;;;;;;;;;;;;;;;9.48;67.80;98208.22;1087987;54;19955;-80
2023/03/14 12:56:08;;;;;;;;;;;;;;;9.50;67.05;98185.69;1088090;54;19989;-80
2023/03/14 12:57:26;;;;;;;;;;;;;;;9.60;66.70;98214.75;1088184;54;19943;-81
2023/03/14 12:58:38;;;;;;;;;;;;;;;9.63;66.49;98216.25;1088819;46;19966;-80
2023/03/14 12:59:50;;;;;;;;;;;;;;;9.53;66.92;98221.84;1087887;54;19942;-81
2023/03/14 13:00:56;;;;;;;;;;;;;;;9.46;66.77;98216.41;1088077;54;19965;-80
2023/03/14 13:02:03;;;;;;;;;;;;;;;9.41;66.15;98229.47;1090389;39;20231;-81
2023/03/14 13:03:16;;;;;;;;;;;;;;;9.50;66.26;98233.69;1088003;54;19927;-81
2023/03/14 13:04:19;;;;;;;;;;;;;;;9.58;65.75;98234.63;1088158;54;19939;-80
2023/03/14 13:05:30;;;;;;;;;;;;;;;9.57;65.16;98243.63;1088187;54;19949;-80
2023/03/14 13:06:46;;;;;;;;;;;;;;;9.60;64.37;98240.63;1088133;54;19950;-81
2023/03/14 13:08:05;;;;;;;;;;;;;;;9.44;64.52;98239.78;1091522;39;20893;-81
2023/03/14 13:09:21;;;;;;;;;;;;;;;9.50;64.11;98259.53;1088140;54;19954;-83
2023/03/14 13:10:40;;;;;;;;;;;;;;;9.45;64.04;98262.75;1087954;54;19943;-81
2023/03/14 13:11:43;;;;;;;;;;;;;;;9.56;63.89;98272.16;1088171;54;19927;-82
2023/03/14 13:12:58;;;;;;;;;;;;;;;9.50;63.97;98268.38;1087928;54;19937;-80
2023/03/14 13:14:05;;;;;;;;;;;;;;;9.59;64.06;98262.97;1088915;46;19962;-81
2023/03/14 13:15:30;;;;;;;;;;;;;;;9.59;63.44;98268.28;1087626;54;19942;-81
2023/03/14 13:16:47;;;;;;;;;;;;;;;9.66;63.25;98270.06;1089939;46;19943;-82
2023/03/14 13:17:57;;;;;;;;;;;;;;;9.65;63.82;98272.91;1090597;39;20561;-80
2023/03/14 13:19:03;;;;;;;;;;;;;;;9.64;63.79;98285.41;1088140;54;19942;-81
2023/03/14 13:20:12;;;;;;;;;;;;;;;9.65;63.55;98288.91;1088118;54;19942;-81
2023/03/14 13:21:28;;;;;;;;;;;;;;;9.72;63.12;98300.53;1088168;54;20678;-83
2023/03/14 13:22:53;;;;;;;;;;;;;;;9.65;62.89;98311.09;1088092;54;19934;-80
2023/03/14 13:23:59;;;;;;;;;;;;;;;9.64;62.35;98298.75;1088050;54;19934;-81
2023/03/14 13:25:10;;;;;;;;;;;;;;;9.63;62.95;98304.28;1088221;54;19969;-81
2023/03/14 13:26:24;;;;;;;;;;;;;;;9.57;62.69;98305.00;1087658;54;19927;-81
2023/03/14 13:27:26;;;;;;;;;;;;;;;9.63;62.43;98315.78;1088359;54;19973;-81
2023/03/14 13:28:37;;;;;;;;;;;;;;;9.68;62.29;98317.91;1090238;46;20509;-81
2023/03/14 13:29:39;;;;;;;;;;;;;;;9.78;61.81;98318.47;1088435;54;19950;-82
2023/03/14 13:32:27;;;;;;;;;;;;;;;9.56;61.75;98322.84;1088504;54;19915;-82
2023/03/14 13:33:33;;;;;;;;;;;;;;;9.58;61.55;98328.84;1093011;46;19985;-80
2023/03/14 13:34:35;;;;;;;;;;;;;;;9.65;62.03;98336.94;1089302;46;19946;-80
2023/03/14 13:36:04;;;;;;;;;;;;;;;9.66;61.73;98338.59;1088450;54;19927;-83
2023/03/14 13:37:16;;;;;;;;;;;;;;;9.71;61.50;98346.91;1089757;46;19927;-81
2023/03/14 13:38:21;;;;;;;;;;;;;;;9.75;61.05;98337.50;1088469;54;19923;-80
2023/03/14 13:39:26;;;;;;;;;;;;;;;9.78;59.26;98339.81;1091183;46;19957;-81
2023/03/14 13:48:46;;;;;;;;;;;;;;;10.04;55.42;98359.09;1088488;39;20369;-80
2023/03/14 13:49:55;;;;;;;;;;;;;;;10.05;53.92;98358.09;1090237;46;19965;-80
2023/03/14 13:51:03;;;;;;;;;;;;;;;10.10;53.34;98364.53;1088004;54;19926;-81
2023/03/14 13:52:21;;;;;;;;;;;;;;;10.09;52.94;98378.91;1089764;47;19986;-82
2023/03/14 13:53:48;;;;;;;;;;;;;;;10.08;52.22;98379.91;1088207;54;19954;-80
2023/03/14 13:54:54;;;;;;;;;;;;;;;10.13;53.55;98385.50;1089294;47;19965;-82
2023/03/14 13:55:58;;;;;;;;;;;;;;;10.09;52.05;98386.91;1088054;54;19973;-81
2023/03/14 13:57:04;;;;;;;;;;;;;;;10.08;51.47;98385.25;1088004;54;19998;-84
2023/03/14 13:58:22;;;;;;;;;;;;;;;10.24;50.96;98400.28;1088109;54;19926;-81
2023/03/14 13:59:24;;;;;;;;;;;;;;;10.25;51.02;98403.78;1087914;54;19945;-80
2023/03/14 14:00:32;;;;;;;;;;;;;;;10.27;51.14;98404.41;1088209;47;19950;-81
2023/03/14 14:01:49;;;;;;;;;;;;;;;10.26;50.14;98405.44;1091649;47;19947;-82
2023/03/14 14:02:51;;;;;;;;;;;;;;;10.28;49.54;98417.59;1087990;54;19943;-80
2023/03/14 14:06:03;;;;;;;;;;;;;;;;;;;;;
2023/03/14 14:07:12;;;;;;;;;;;;;;;10.22;46.43;98425.50;1088385;54;19931;-81
2023/03/14 14:08:36;;;;;;;;;;;;;;;10.22;46.70;98436.16;1088244;54;19962;-81
2023/03/14 14:09:50;;;;;;;;;;;;;;;10.20;45.94;98452.38;1088541;46;19998;-82
2023/03/14 14:12:51;;;;;;;;;;;;;;;10.43;45.25;98439.00;1088061;54;19939;-81
2023/03/14 14:14:03;;;;;;;;;;;;;;;10.58;45.28;98451.56;1090934;46;19943;-82
2023/03/14 14:21:01;;;;;;;;;;;;;;;;;;;;;
2023/03/14 14:23:39;;;;;;;;;;;;;;;10.32;45.01;98476.81;1088018;54;19947;-81
2023/03/14 14:24:42;;;;;;;;;;;;;;;10.34;45.03;98463.28;1092186;46;20021;-81
2023/03/14 14:25:49;;;;;;;;;;;;;;;10.27;45.12;98471.19;1088128;54;19987;-82
2023/03/14 14:30:09;;;;;;;;;;;;;;;10.23;44.89;98492.09;1088185;46;19967;-81
2023/03/14 14:31:36;;;;;;;;;;;;;;;10.16;44.69;98491.13;1088086;47;19939;-82
2023/03/14 14:32:39;;;;;;;;;;;;;;;10.05;44.41;98495.06;1095977;39;20190;-80
2023/03/14 14:34:03;;;;;;;;;;;;;;;10.10;44.58;98500.72;1088624;46;20012;-81
2023/03/14 14:35:08;;;;;;;;;;;;;;;10.15;44.48;98502.84;1087951;54;19958;-79
2023/03/14 14:36:31;;;;;;;;;;;;;;;10.15;44.67;98505.53;1087925;54;19942;-80
2023/03/14 14:37:37;;;;;;;;;;;;;;;10.07;45.05;98513.56;1087821;54;19942;-80
2023/03/14 14:38:38;;;;;;;;;;;;;;;10.02;44.48;98514.09;1087962;54;19967;-81
2023/03/14 14:41:17;;;;;;;;;;;;;;;9.94;44.89;98522.19;1088382;46;19991;-80
2023/03/14 14:42:54;;;;;;;;;;;;;;;;;;;;;
2023/03/14 14:44:10;;;;;;;;;;;;;;;10.00;44.55;98540.16;1088005;54;19961;-81
2023/03/14 14:45:20;;;;;;;;;;;;;;;9.98;44.40;98531.50;1088019;54;19946;-80
2023/03/14 14:46:21;;;;;;;;;;;;;;;10.01;44.63;98549.84;1088015;54;19938;-79
2023/03/14 14:47:39;;;;;;;;;;;;;;;9.99;44.13;98541.19;1087893;54;19927;-81
2023/03/14 14:48:42;;;;;;;;;;;;;;;9.96;43.53;98530.84;1089368;39;20551;-81
2023/03/14 14:51:36;;;;;;;;;;;;;;;9.94;43.59;98560.41;1088025;54;19949;-82
2023/03/14 14:52:52;;;;;;;;;;;;;;;9.93;43.29;98558.72;1088046;54;19949;-82
2023/03/14 14:54:29;;;;;;;;;;;;;;;10.07;42.95;98570.47;1087900;54;19973;-83
2023/03/14 14:56:18;;;;;;;;;;;;;;;10.12;42.61;98568.09;1087767;54;19938;-83
2023/03/14 15:10:48;;;;;;;;;;;;;;;10.58;41.45;98577.97;1088224;46;19938;-80
2023/03/14 15:12:11;;;;;;;;;;;;;;;10.56;41.73;98579.97;1088474;54;19950;-82
2023/03/14 15:16:44;;;;;;;;;;;;;;;10.72;41.01;98584.34;1088246;54;19994;-80
2023/03/14 15:18:20;;;;;;;;;;;;;;;10.79;41.27;98592.47;1088007;54;19939;-81
2023/03/14 15:19:45;;;;;;;;;;;;;;;10.60;40.92;98588.47;1088139;46;19963;-81
2023/03/14 15:27:13;;;;;;;;;;;;;;;10.72;40.76;98602.25;1088009;54;19945;-81
2023/03/14 15:28:31;;;;;;;;;;;;;;;10.70;40.47;98598.91;1088011;54;19927;-81
2023/03/14 15:29:48;;;;;;;;;;;;;;;10.83;40.73;98606.31;1088083;54;19970;-82
2023/03/14 15:32:45;;;;;;;;;;;;;;;10.78;40.97;98596.16;1088361;46;20026;-81
2023/03/14 15:34:16;;;;;;;;;;;;;;;10.75;40.79;98605.38;1088037;54;19942;-81
2023/03/14 15:35:23;;;;;;;;;;;;;;;10.85;40.28;98606.97;1088311;54;19954;-83
2023/03/14 15:36:30;;;;;;;;;;;;;;;10.80;40.41;98601.31;1089848;46;19930;-79
2023/03/14 15:41:11;;;;;;;;;;;;;;;10.76;41.18;98628.44;1088344;54;19943;-82
2023/03/14 15:51:50;;;;;;;;;;;;;;;10.69;40.71;98616.78;1087924;54;19950;-81
2023/03/14 16:02:03;;;;;;;;;;;;;;;10.44;41.28;98633.00;1087748;54;19938;-82
2023/03/14 16:03:24;;;;;;;;;;;;;;;10.54;41.19;98626.59;1088938;46;19959;-82
2023/03/14 16:07:59;;;;;;;;;;;;;;;10.33;41.88;98633.38;1087694;54;19938;-79
2023/03/14 16:09:23;;;;;;;;;;;;;;;10.40;41.90;98639.72;1087907;54;19935;-82
2023/03/14 16:15:20;;;;;;;;;;;;;;;10.49;42.55;98653.84;1087962;54;20730;-81
2023/03/14 16:18:19;;;;;;;;;;;;;;;10.47;42.73;98655.03;1087894;54;19939;-82
2023/03/14 16:21:27;;;;;;;;;;;;;;;10.47;42.58;98665.72;1087872;54;19939;-82
2023/03/14 16:22:58;;;;;;;;;;;;;;;10.14;42.79;98664.88;1090151;46;19998;-81
2023/03/14 16:26:02;;;;;;;;;;;;;;;9.88;43.39;98659.03;1087981;54;19939;-80
2023/03/14 16:27:13;;;;;;;;;;;;;;;9.81;43.45;98670.41;1087840;46;19950;-80
2023/03/14 16:28:30;;;;;;;;;;;;;;;9.83;43.57;98683.56;1087901;54;19943;-81
2023/03/14 16:31:09;;;;;;;;;;;;;;;9.78;43.84;98681.44;1088069;54;19945;-80
2023/03/14 16:32:11;;;;;;;;;;;;;;;9.68;44.55;98689.63;1088019;46;19950;-81
2023/03/14 16:33:16;;;;;;;;;;;;;;;9.63;44.61;98683.16;1088317;54;19942;-81
2023/03/14 16:34:42;;;;;;;;;;;;;;;9.59;44.66;98681.81;1088077;54;19926;-81
2023/03/14 16:45:26;;;;;;;;;;;;;;;9.35;45.36;98721.72;1092407;46;19950;-81
2023/03/14 17:12:25;;;;;;;;;;;;;;;9.15;46.34;98747.94;1087937;54;19942;-80
2023/03/14 17:13:42;;;;;;;;;;;;;;;;;;;;;
2023/03/14 17:14:47;;;;;;;;;;;;;;;9.09;46.27;98755.75;1088112;54;19922;-80
2023/03/14 17:55:49;;;;;;;;;;;;;;;8.31;51.65;98845.66;1087562;54;19943;-81
2023/03/14 18:52:24;;;;;;;;;;;;;;;;;;;;;
2023/03/14 18:56:52;;;;;;;;;;;;;;;7.41;61.03;98992.97;1087984;54;19943;-81
2023/03/14 19:01:48;;;;;;;;;;;;;;;7.31;61.44;98993.88;1087872;54;19933;-82
